Arcadia, South Carolina
Current Conditions -  °F | °C
As of 3:15 PM on Saturday 20 Dec 2014 (Local Time) from KSPA Reporting Station
Broken Clouds Broken Clouds  
Wind Chill:   Ceiling: 1900
Heat Index:   Visibility: 10mi
Dew Point:   Wind: 6mph
Humidity: 93%   Direction: 30°NNE
Pressure: 30.19"   Gusts: NA
Location:  34.96°N, 81.99°W
Report Text: KSPA 202015Z AUTO 03005KT 10SM SCT009 BKN019 07/06 A3019 RMK AO2
Loading
Personal Weather Stations






























Interactive Weather Map New forecast layout! Learn more

10-Day Weather Forecast

Advertisements
Track Severe Weather on mobile